FOF320 MROC-SPJC
Flight info
| Callsign | FOF320 |
|---|---|
| Flight time | N/A |
| Altitude | 37000 |
| Route | DOTAS3D DRAKE UM659 GYV UL780 TRU UV1 ATATU |
| Aircraft | B738/M-SDE2E3FGHIRVWY/LB1 |
Departure
| Time | 2026-05-07 13:15 |
|---|---|
| Airport | Juan Santamaría International Airport (MROC) |
Arrival
| Time | N/A |
|---|---|
| Airport | Jorge Chávez International Airport (SPJC) |
| Time | Latitude | Longitude | Altitude | Speed | Heading |
|---|---|---|---|---|---|
| 2026-05-07 12:43 | 9.99757 | -84.20316 | 3033 ft | 0 kts | 339° |
| 2026-05-07 13:06 | 9.99748 | -84.20312 | 3032 ft | 3 kts | 336° |
| 2026-05-07 13:06 | 9.99730 | -84.20303 | 3034 ft | 3 kts | 326° |
| 2026-05-07 13:06 | 9.99714 | -84.20290 | 3032 ft | 3 kts | 318° |
| 2026-05-07 13:07 | 9.99704 | -84.20282 | 3034 ft | 0 kts | 316° |
| 2026-05-07 13:10 | 9.99710 | -84.20296 | 3034 ft | 5 kts | 272° |
| 2026-05-07 13:10 | 9.99689 | -84.20348 | 3033 ft | 11 kts | 246° |
| 2026-05-07 13:10 | 9.99652 | -84.20445 | 3033 ft | 18 kts | 250° |
| 2026-05-07 13:10 | 9.99606 | -84.20570 | 3034 ft | 20 kts | 249° |
| 2026-05-07 13:11 | 9.99556 | -84.20701 | 3033 ft | 20 kts | 248° |
| 2026-05-07 13:11 | 9.99506 | -84.20834 | 3034 ft | 20 kts | 249° |
| 2026-05-07 13:11 | 9.99452 | -84.20980 | 3023 ft | 26 kts | 249° |
| 2026-05-07 13:11 | 9.99377 | -84.21179 | 3005 ft | 29 kts | 249° |
| 2026-05-07 13:12 | 9.99305 | -84.21372 | 2992 ft | 29 kts | 249° |
| 2026-05-07 13:12 | 9.99233 | -84.21562 | 2977 ft | 29 kts | 249° |
| 2026-05-07 13:12 | 9.99163 | -84.21749 | 2967 ft | 28 kts | 249° |
| 2026-05-07 13:12 | 9.99101 | -84.21916 | 2951 ft | 22 kts | 249° |
| 2026-05-07 13:13 | 9.99049 | -84.22060 | 2953 ft | 22 kts | 250° |
| 2026-05-07 13:13 | 9.98988 | -84.22177 | 2943 ft | 14 kts | 209° |
| 2026-05-07 13:13 | 9.98919 | -84.22165 | 2942 ft | 8 kts | 124° |
| 2026-05-07 13:13 | 9.98930 | -84.22114 | 2944 ft | 8 kts | 70° |
| 2026-05-07 13:14 | 9.98950 | -84.22059 | 2946 ft | 16 kts | 70° |
| 2026-05-07 13:14 | 9.99069 | -84.21741 | 2972 ft | 80 kts | 69° |
| 2026-05-07 13:14 | 9.99339 | -84.21019 | 3015 ft | 136 kts | 69° |
| 2026-05-07 13:14 | 9.99722 | -84.19979 | 3206 ft | 168 kts | 72° |
| 2026-05-07 13:15 | 10.00108 | -84.18871 | 3983 ft | 171 kts | 71° |
| 2026-05-07 13:15 | 10.00512 | -84.17670 | 4501 ft | 190 kts | 81° |
| 2026-05-07 13:15 | 10.00250 | -84.16297 | 4727 ft | 217 kts | 122° |
| 2026-05-07 13:15 | 9.99382 | -84.15047 | 5366 ft | 210 kts | 122° |
| 2026-05-07 13:16 | 9.98506 | -84.13815 | 5856 ft | 221 kts | 123° |
| 2026-05-07 13:16 | 9.97633 | -84.12502 | 6373 ft | 230 kts | 122° |
| 2026-05-07 13:16 | 9.96739 | -84.11113 | 6843 ft | 240 kts | 120° |
| 2026-05-07 13:16 | 9.95819 | -84.09609 | 7095 ft | 266 kts | 121° |
| 2026-05-07 13:17 | 9.94776 | -84.07951 | 7512 ft | 276 kts | 122° |
| 2026-05-07 13:17 | 9.93786 | -84.06423 | 9018 ft | 248 kts | 125° |
| 2026-05-07 13:17 | 9.92479 | -84.05279 | 9691 ft | 259 kts | 153° |
| 2026-05-07 13:17 | 9.90634 | -84.04883 | 9907 ft | 287 kts | 181° |
| 2026-05-07 13:18 | 9.88666 | -84.05437 | 10268 ft | 308 kts | 207° |
| 2026-05-07 13:18 | 9.86912 | -84.06825 | 10440 ft | 332 kts | 220° |
| 2026-05-07 13:18 | 9.85098 | -84.08491 | 10583 ft | 353 kts | 220° |
| 2026-05-07 13:18 | 9.83249 | -84.10200 | 10939 ft | 365 kts | 221° |
| 2026-05-07 13:19 | 9.81365 | -84.11949 | 11492 ft | 369 kts | 220° |
| 2026-05-07 13:19 | 9.79492 | -84.13688 | 12127 ft | 370 kts | 220° |
| 2026-05-07 13:19 | 9.77579 | -84.15462 | 12640 ft | 376 kts | 220° |
| 2026-05-07 13:19 | 9.75642 | -84.17257 | 13265 ft | 377 kts | 220° |
| 2026-05-07 13:20 | 9.73667 | -84.19085 | 13833 ft | 382 kts | 219° |
| 2026-05-07 13:20 | 9.71690 | -84.20912 | 14288 ft | 387 kts | 219° |
| 2026-05-07 13:20 | 9.69469 | -84.22430 | 14727 ft | 385 kts | 200° |
| 2026-05-07 13:20 | 9.66945 | -84.23125 | 15212 ft | 380 kts | 183° |
| 2026-05-07 13:21 | 9.64317 | -84.23036 | 15753 ft | 378 kts | 171° |
| 2026-05-07 13:21 | 9.61698 | -84.22699 | 16234 ft | 381 kts | 169° |
| 2026-05-07 13:21 | 9.59079 | -84.22228 | 16650 ft | 384 kts | 165° |
| 2026-05-07 13:21 | 9.57313 | -84.21815 | 16941 ft | 386 kts | 163° |
| 2026-05-07 13:22 | 9.54663 | -84.21148 | 17418 ft | 389 kts | 163° |
| 2026-05-07 13:22 | 9.52067 | -84.20482 | 17886 ft | 391 kts | 163° |
| 2026-05-07 13:22 | 9.49415 | -84.19806 | 18317 ft | 395 kts | 163° |
| 2026-05-07 13:22 | 9.45828 | -84.18906 | 18820 ft | 398 kts | 163° |
| 2026-05-07 13:23 | 9.44036 | -84.18463 | 19085 ft | 400 kts | 163° |
| 2026-05-07 13:23 | 9.41328 | -84.17797 | 19468 ft | 402 kts | 163° |
| 2026-05-07 13:23 | 9.38593 | -84.17129 | 19851 ft | 405 kts | 163° |
| 2026-05-07 13:23 | 9.35849 | -84.16461 | 20207 ft | 407 kts | 163° |
| 2026-05-07 13:24 | 9.33083 | -84.15789 | 20566 ft | 410 kts | 163° |
| 2026-05-07 13:24 | 9.30260 | -84.15103 | 20924 ft | 412 kts | 163° |
| 2026-05-07 13:24 | 9.27463 | -84.14424 | 21278 ft | 415 kts | 163° |
| 2026-05-07 13:24 | 9.24645 | -84.13739 | 21620 ft | 417 kts | 163° |
| 2026-05-07 13:25 | 9.21812 | -84.13051 | 21956 ft | 420 kts | 163° |
| 2026-05-07 13:25 | 9.18959 | -84.12358 | 22291 ft | 422 kts | 163° |
| 2026-05-07 13:25 | 9.16093 | -84.11662 | 22602 ft | 425 kts | 163° |
| 2026-05-07 13:25 | 9.13217 | -84.10964 | 22918 ft | 427 kts | 163° |
| 2026-05-07 13:26 | 9.10315 | -84.10259 | 23229 ft | 429 kts | 163° |
| 2026-05-07 13:26 | 9.07441 | -84.09562 | 23521 ft | 432 kts | 163° |
| 2026-05-07 13:26 | 9.04513 | -84.08851 | 23770 ft | 434 kts | 163° |
| 2026-05-07 13:26 | 9.01573 | -84.08138 | 24020 ft | 436 kts | 163° |
| 2026-05-07 13:27 | 8.98619 | -84.07422 | 24270 ft | 437 kts | 163° |
| 2026-05-07 13:27 | 8.95651 | -84.06702 | 24513 ft | 439 kts | 163° |
| 2026-05-07 13:27 | 8.92673 | -84.05980 | 24755 ft | 441 kts | 163° |
| 2026-05-07 13:27 | 8.89687 | -84.05256 | 24993 ft | 443 kts | 163° |
| 2026-05-07 13:28 | 8.86628 | -84.04514 | 25236 ft | 445 kts | 163° |
| 2026-05-07 13:28 | 8.83576 | -84.03775 | 25473 ft | 446 kts | 163° |
| 2026-05-07 13:28 | 8.80585 | -84.03049 | 25698 ft | 448 kts | 163° |
| 2026-05-07 13:28 | 8.77546 | -84.02313 | 25925 ft | 450 kts | 163° |
| 2026-05-07 13:29 | 8.74492 | -84.01573 | 26151 ft | 452 kts | 164° |
| 2026-05-07 13:29 | 8.71427 | -84.00831 | 26379 ft | 453 kts | 164° |
| 2026-05-07 13:29 | 8.68358 | -84.00079 | 26601 ft | 454 kts | 162° |
| 2026-05-07 13:29 | 8.65351 | -83.99104 | 26803 ft | 454 kts | 157° |
| 2026-05-07 13:30 | 8.62399 | -83.97969 | 27017 ft | 455 kts | 156° |
| 2026-05-07 13:30 | 8.59503 | -83.96804 | 27223 ft | 457 kts | 156° |
| 2026-05-07 13:30 | 8.56500 | -83.95583 | 27429 ft | 458 kts | 156° |
| 2026-05-07 13:30 | 8.53535 | -83.94384 | 27631 ft | 460 kts | 156° |
| 2026-05-07 13:31 | 8.50553 | -83.93190 | 27831 ft | 461 kts | 156° |
| 2026-05-07 13:31 | 8.47564 | -83.92006 | 28029 ft | 463 kts | 156° |
| 2026-05-07 13:31 | 8.44475 | -83.90790 | 28226 ft | 464 kts | 156° |
| 2026-05-07 13:31 | 8.41463 | -83.89610 | 28411 ft | 466 kts | 157° |
| 2026-05-07 13:32 | 8.38425 | -83.88422 | 28591 ft | 467 kts | 157° |
| 2026-05-07 13:32 | 8.35390 | -83.87237 | 28771 ft | 468 kts | 157° |
| 2026-05-07 13:32 | 8.32346 | -83.86048 | 28946 ft | 470 kts | 157° |
| 2026-05-07 13:32 | 8.29295 | -83.84856 | 29109 ft | 471 kts | 157° |
| 2026-05-07 13:33 | 8.26236 | -83.83661 | 29268 ft | 473 kts | 157° |
| 2026-05-07 13:33 | 8.23159 | -83.82458 | 29420 ft | 474 kts | 157° |
| 2026-05-07 13:33 | 8.20076 | -83.81254 | 29578 ft | 476 kts | 157° |
| 2026-05-07 13:33 | 8.16984 | -83.80046 | 29745 ft | 477 kts | 157° |
| 2026-05-07 13:34 | 8.13890 | -83.78837 | 29962 ft | 476 kts | 157° |
| 2026-05-07 13:34 | 8.07717 | -83.76427 | 30396 ft | 475 kts | 157° |
| 2026-05-07 13:34 | 8.04637 | -83.75224 | 30593 ft | 474 kts | 158° |
| 2026-05-07 13:35 | 8.01560 | -83.74023 | 30818 ft | 473 kts | 158° |
| 2026-05-07 13:35 | 7.98549 | -83.72848 | 31064 ft | 472 kts | 158° |
| 2026-05-07 13:35 | 7.95449 | -83.71638 | 31312 ft | 471 kts | 158° |
| 2026-05-07 13:35 | 7.92440 | -83.70464 | 31542 ft | 470 kts | 158° |
| 2026-05-07 13:36 | 7.89389 | -83.69274 | 31771 ft | 469 kts | 158° |
| 2026-05-07 13:36 | 7.86376 | -83.68098 | 32006 ft | 468 kts | 158° |
| 2026-05-07 13:36 | 7.83336 | -83.66913 | 32236 ft | 468 kts | 158° |
| 2026-05-07 13:36 | 7.80305 | -83.65731 | 32471 ft | 467 kts | 158° |
| 2026-05-07 13:37 | 7.77281 | -83.64552 | 32716 ft | 466 kts | 158° |
| 2026-05-07 13:37 | 7.74256 | -83.63373 | 32933 ft | 466 kts | 158° |
| 2026-05-07 13:37 | 7.71239 | -83.62196 | 33156 ft | 465 kts | 158° |
| 2026-05-07 13:37 | 7.68216 | -83.61018 | 33391 ft | 465 kts | 158° |
| 2026-05-07 13:38 | 7.65201 | -83.59844 | 33629 ft | 464 kts | 158° |
| 2026-05-07 13:38 | 7.62197 | -83.58673 | 33867 ft | 463 kts | 158° |
| 2026-05-07 13:38 | 7.59185 | -83.57500 | 34069 ft | 463 kts | 158° |
| 2026-05-07 13:38 | 7.56183 | -83.56331 | 34252 ft | 463 kts | 158° |
| 2026-05-07 13:39 | 7.53172 | -83.55158 | 34425 ft | 464 kts | 158° |
| 2026-05-07 13:39 | 7.50161 | -83.53986 | 34595 ft | 464 kts | 158° |
| 2026-05-07 13:39 | 7.47144 | -83.52811 | 34770 ft | 464 kts | 158° |
| 2026-05-07 13:39 | 7.44129 | -83.51638 | 34947 ft | 464 kts | 158° |
| 2026-05-07 13:40 | 7.41120 | -83.50467 | 35119 ft | 464 kts | 158° |
| 2026-05-07 13:40 | 7.38102 | -83.49292 | 35296 ft | 464 kts | 158° |
| 2026-05-07 13:40 | 7.35094 | -83.48122 | 35481 ft | 464 kts | 158° |
| 2026-05-07 13:40 | 7.32084 | -83.46951 | 35655 ft | 464 kts | 158° |
| 2026-05-07 13:41 | 7.29061 | -83.45775 | 35813 ft | 464 kts | 158° |
| 2026-05-07 13:41 | 7.26051 | -83.44605 | 35987 ft | 464 kts | 158° |
| 2026-05-07 13:41 | 7.23033 | -83.43431 | 36164 ft | 464 kts | 158° |
| 2026-05-07 13:41 | 7.20023 | -83.42261 | 36354 ft | 463 kts | 158° |
| 2026-05-07 13:42 | 7.17015 | -83.41091 | 36510 ft | 463 kts | 159° |
| 2026-05-07 13:42 | 7.14002 | -83.39920 | 36665 ft | 463 kts | 158° |
| 2026-05-07 13:42 | 7.10995 | -83.38752 | 36836 ft | 463 kts | 159° |
| 2026-05-07 13:43 | 7.05006 | -83.36425 | 36924 ft | 466 kts | 159° |
| 2026-05-07 13:43 | 6.98977 | -83.34083 | 36934 ft | 463 kts | 158° |
| 2026-05-07 13:44 | 6.92983 | -83.31755 | 36936 ft | 460 kts | 158° |
| 2026-05-07 13:44 | 6.87029 | -83.29444 | 36942 ft | 457 kts | 158° |
| 2026-05-07 13:45 | 6.81101 | -83.27143 | 36939 ft | 456 kts | 158° |
| 2026-05-07 13:45 | 6.75186 | -83.24848 | 36941 ft | 455 kts | 158° |
| 2026-05-07 13:46 | 6.69279 | -83.22556 | 36948 ft | 455 kts | 158° |
| 2026-05-07 13:46 | 6.63366 | -83.20263 | 36950 ft | 456 kts | 158° |
| 2026-05-07 13:47 | 6.57430 | -83.17962 | 36950 ft | 457 kts | 158° |
| 2026-05-07 13:47 | 6.51485 | -83.15657 | 36950 ft | 459 kts | 158° |
| 2026-05-07 13:48 | 6.45521 | -83.13346 | 36947 ft | 460 kts | 158° |
| 2026-05-07 13:48 | 6.39577 | -83.11043 | 36945 ft | 461 kts | 158° |
| 2026-05-07 13:49 | 6.33581 | -83.08721 | 36951 ft | 462 kts | 158° |
| 2026-05-07 13:49 | 6.27578 | -83.06396 | 36943 ft | 463 kts | 158° |
| 2026-05-07 13:50 | 6.21568 | -83.04069 | 36946 ft | 463 kts | 158° |
| 2026-05-07 13:50 | 6.15557 | -83.01743 | 36952 ft | 462 kts | 158° |
| 2026-05-07 13:51 | 6.09551 | -82.99419 | 36950 ft | 462 kts | 158° |
| 2026-05-07 13:51 | 6.03554 | -82.97099 | 36946 ft | 461 kts | 158° |
| 2026-05-07 13:52 | 5.97571 | -82.94784 | 36952 ft | 460 kts | 158° |
| 2026-05-07 13:52 | 5.91585 | -82.92469 | 36949 ft | 460 kts | 158° |
| 2026-05-07 13:53 | 5.85612 | -82.90171 | 36952 ft | 459 kts | 159° |
| 2026-05-07 13:53 | 5.79644 | -82.87897 | 36946 ft | 459 kts | 159° |
| 2026-05-07 13:54 | 5.73719 | -82.85641 | 36950 ft | 458 kts | 159° |
| 2026-05-07 13:54 | 5.67756 | -82.83368 | 36949 ft | 458 kts | 159° |
| 2026-05-07 13:55 | 5.61786 | -82.81091 | 36957 ft | 458 kts | 159° |
| 2026-05-07 13:55 | 5.55825 | -82.78818 | 36955 ft | 458 kts | 159° |
| 2026-05-07 13:56 | 5.49856 | -82.76542 | 36956 ft | 459 kts | 159° |
| 2026-05-07 13:56 | 5.43876 | -82.74263 | 36948 ft | 460 kts | 159° |
| 2026-05-07 13:57 | 5.37890 | -82.71981 | 36955 ft | 461 kts | 159° |
| 2026-05-07 13:57 | 5.31926 | -82.69709 | 36947 ft | 461 kts | 159° |
| 2026-05-07 13:58 | 5.26897 | -82.67793 | 36950 ft | 462 kts | 159° |
| 2026-05-07 13:58 | 5.20881 | -82.65502 | 36955 ft | 462 kts | 159° |
| 2026-05-07 13:59 | 5.14861 | -82.63209 | 36950 ft | 463 kts | 159° |
| 2026-05-07 13:59 | 5.08837 | -82.60916 | 36948 ft | 463 kts | 159° |
| 2026-05-07 14:00 | 5.02805 | -82.58620 | 36952 ft | 464 kts | 159° |
| 2026-05-07 14:00 | 4.96812 | -82.56339 | 36954 ft | 464 kts | 159° |
| 2026-05-07 14:01 | 4.90781 | -82.54045 | 36947 ft | 464 kts | 159° |
| 2026-05-07 14:01 | 4.84709 | -82.51735 | 36949 ft | 464 kts | 159° |
| 2026-05-07 14:02 | 4.78716 | -82.49455 | 36954 ft | 464 kts | 159° |
| 2026-05-07 14:02 | 4.72673 | -82.47157 | 36950 ft | 464 kts | 159° |
| 2026-05-07 14:03 | 4.66629 | -82.44859 | 36954 ft | 464 kts | 159° |
| 2026-05-07 14:03 | 4.60587 | -82.42561 | 36945 ft | 464 kts | 159° |
| 2026-05-07 14:04 | 4.54540 | -82.40263 | 36950 ft | 465 kts | 159° |
| 2026-05-07 14:04 | 4.48487 | -82.37960 | 36948 ft | 465 kts | 159° |
| 2026-05-07 14:05 | 4.42439 | -82.35654 | 36950 ft | 465 kts | 158° |
| 2026-05-07 14:05 | 4.36382 | -82.33344 | 36955 ft | 466 kts | 158° |
| 2026-05-07 14:06 | 4.30323 | -82.31034 | 36950 ft | 466 kts | 158° |
| 2026-05-07 14:06 | 4.24298 | -82.28737 | 36947 ft | 466 kts | 158° |
| 2026-05-07 14:07 | 4.18230 | -82.26425 | 36945 ft | 467 kts | 158° |
| 2026-05-07 14:07 | 4.12159 | -82.24111 | 36954 ft | 467 kts | 158° |
| 2026-05-07 14:08 | 4.06092 | -82.21800 | 36953 ft | 467 kts | 158° |
| 2026-05-07 14:08 | 4.00014 | -82.19485 | 36949 ft | 467 kts | 158° |
| 2026-05-07 14:09 | 3.93948 | -82.17175 | 36945 ft | 467 kts | 158° |
| 2026-05-07 14:09 | 3.87874 | -82.14862 | 36952 ft | 467 kts | 158° |
| 2026-05-07 14:10 | 3.81803 | -82.12550 | 36947 ft | 466 kts | 158° |
| 2026-05-07 14:10 | 3.75739 | -82.10242 | 36952 ft | 466 kts | 158° |
| 2026-05-07 14:11 | 3.69679 | -82.07935 | 36949 ft | 466 kts | 158° |
| 2026-05-07 14:11 | 3.63618 | -82.05628 | 36941 ft | 466 kts | 158° |
| 2026-05-07 14:12 | 3.57559 | -82.03322 | 36946 ft | 466 kts | 158° |
| 2026-05-07 14:12 | 3.51496 | -82.01016 | 36942 ft | 466 kts | 158° |
| 2026-05-07 14:13 | 3.45439 | -81.98723 | 36951 ft | 466 kts | 158° |
| 2026-05-07 14:13 | 3.39370 | -81.96427 | 36952 ft | 466 kts | 158° |
| 2026-05-07 14:14 | 3.33345 | -81.94147 | 36947 ft | 466 kts | 158° |
| 2026-05-07 14:14 | 3.27277 | -81.91849 | 36947 ft | 466 kts | 158° |
| 2026-05-07 14:15 | 3.21207 | -81.89551 | 36951 ft | 467 kts | 158° |
| 2026-05-07 14:15 | 3.15130 | -81.87251 | 36954 ft | 467 kts | 158° |
| 2026-05-07 14:16 | 3.09059 | -81.84953 | 36950 ft | 467 kts | 158° |
| 2026-05-07 14:16 | 3.02970 | -81.82649 | 36947 ft | 467 kts | 158° |
| 2026-05-07 14:17 | 2.96893 | -81.80350 | 36949 ft | 467 kts | 158° |
| 2026-05-07 14:17 | 2.90815 | -81.78050 | 36951 ft | 467 kts | 158° |
| 2026-05-07 14:18 | 2.84736 | -81.75751 | 36956 ft | 467 kts | 158° |
| 2026-05-07 14:18 | 2.78660 | -81.73452 | 36957 ft | 466 kts | 158° |
| 2026-05-07 14:19 | 2.72624 | -81.71170 | 36957 ft | 466 kts | 158° |
| 2026-05-07 14:19 | 2.66552 | -81.68874 | 36951 ft | 466 kts | 159° |
| 2026-05-07 14:20 | 2.60487 | -81.66580 | 36957 ft | 466 kts | 159° |
| 2026-05-07 14:20 | 2.54426 | -81.64288 | 36950 ft | 466 kts | 159° |
| 2026-05-07 14:21 | 2.48361 | -81.61995 | 36960 ft | 465 kts | 159° |
| 2026-05-07 14:21 | 2.42305 | -81.59706 | 36957 ft | 465 kts | 159° |
| 2026-05-07 14:22 | 2.36267 | -81.57424 | 36953 ft | 464 kts | 159° |
| 2026-05-07 14:22 | 2.30222 | -81.55139 | 36957 ft | 463 kts | 159° |
| 2026-05-07 14:23 | 2.24197 | -81.52862 | 36960 ft | 462 kts | 159° |
| 2026-05-07 14:23 | 2.18179 | -81.50588 | 36954 ft | 462 kts | 159° |
| 2026-05-07 14:24 | 2.12211 | -81.48333 | 36959 ft | 461 kts | 159° |
| 2026-05-07 14:24 | 2.06223 | -81.46071 | 36960 ft | 460 kts | 159° |
| 2026-05-07 14:25 | 2.00242 | -81.43811 | 36962 ft | 459 kts | 159° |
| 2026-05-07 14:25 | 1.94268 | -81.41555 | 36956 ft | 458 kts | 159° |
| 2026-05-07 14:26 | 1.88306 | -81.39302 | 36957 ft | 458 kts | 159° |
| 2026-05-07 14:26 | 1.82344 | -81.37050 | 36962 ft | 458 kts | 159° |
| 2026-05-07 14:27 | 1.76390 | -81.34802 | 36963 ft | 457 kts | 159° |
| 2026-05-07 14:27 | 1.70434 | -81.32552 | 36958 ft | 457 kts | 159° |
| 2026-05-07 14:28 | 1.64482 | -81.30304 | 36963 ft | 457 kts | 159° |
| 2026-05-07 14:28 | 1.58531 | -81.28057 | 36962 ft | 457 kts | 159° |
| 2026-05-07 14:29 | 1.52580 | -81.25810 | 36960 ft | 457 kts | 159° |
| 2026-05-07 14:29 | 1.46625 | -81.23561 | 36960 ft | 457 kts | 159° |
| 2026-05-07 14:30 | 1.40711 | -81.21327 | 36958 ft | 457 kts | 159° |
| 2026-05-07 14:30 | 1.34755 | -81.19063 | 36960 ft | 458 kts | 159° |
| 2026-05-07 14:31 | 1.28804 | -81.16793 | 36958 ft | 458 kts | 159° |
| 2026-05-07 14:31 | 1.22852 | -81.14523 | 36960 ft | 458 kts | 159° |
| 2026-05-07 14:32 | 1.16892 | -81.12252 | 36962 ft | 458 kts | 159° |
| 2026-05-07 14:32 | 1.10933 | -81.09981 | 36960 ft | 458 kts | 159° |
| 2026-05-07 14:33 | 1.04966 | -81.07708 | 36964 ft | 458 kts | 159° |
| 2026-05-07 14:33 | 0.99041 | -81.05451 | 36967 ft | 459 kts | 159° |
| 2026-05-07 14:34 | 0.93071 | -81.03177 | 36955 ft | 459 kts | 159° |
| 2026-05-07 14:34 | 0.87098 | -81.00902 | 36962 ft | 459 kts | 159° |
| 2026-05-07 14:35 | 0.81135 | -80.98630 | 36964 ft | 459 kts | 159° |
| 2026-05-07 14:35 | 0.75159 | -80.96354 | 36966 ft | 459 kts | 159° |
| 2026-05-07 14:36 | 0.69183 | -80.94078 | 36960 ft | 459 kts | 159° |
| 2026-05-07 14:36 | 0.63208 | -80.91802 | 36957 ft | 459 kts | 159° |
| 2026-05-07 14:37 | 0.57234 | -80.89527 | 36954 ft | 459 kts | 159° |
| 2026-05-07 14:37 | 0.48271 | -80.86114 | 36962 ft | 459 kts | 159° |
| 2026-05-07 14:38 | 0.42306 | -80.83842 | 36954 ft | 459 kts | 159° |
| 2026-05-07 14:38 | 0.36333 | -80.81567 | 36958 ft | 459 kts | 159° |
| 2026-05-07 14:39 | 0.30409 | -80.79311 | 36956 ft | 459 kts | 159° |
| 2026-05-07 14:39 | 0.24439 | -80.77037 | 36954 ft | 458 kts | 159° |
| 2026-05-07 14:40 | 0.18476 | -80.74767 | 36950 ft | 458 kts | 159° |
| 2026-05-07 14:40 | 0.12517 | -80.72497 | 36953 ft | 458 kts | 159° |
| 2026-05-07 14:41 | 0.06551 | -80.70226 | 36950 ft | 458 kts | 159° |
| 2026-05-07 14:41 | 0.00585 | -80.67954 | 36947 ft | 458 kts | 159° |
| 2026-05-07 14:42 | -0.04372 | -80.66066 | 36946 ft | 459 kts | 159° |
| 2026-05-07 14:42 | -0.10342 | -80.63792 | 36941 ft | 459 kts | 159° |
| 2026-05-07 14:43 | -0.17284 | -80.61149 | 36933 ft | 459 kts | 159° |
| 2026-05-07 14:43 | -0.22294 | -80.59241 | 36934 ft | 460 kts | 159° |
| 2026-05-07 14:44 | -0.28276 | -80.56963 | 36928 ft | 460 kts | 159° |
| 2026-05-07 14:44 | -0.34257 | -80.54685 | 36922 ft | 460 kts | 159° |
| 2026-05-07 14:45 | -0.40242 | -80.52406 | 36926 ft | 460 kts | 159° |
| 2026-05-07 14:45 | -0.46228 | -80.50126 | 36914 ft | 461 kts | 159° |
| 2026-05-07 14:46 | -0.52227 | -80.47841 | 36924 ft | 460 kts | 159° |
| 2026-05-07 14:46 | -0.58170 | -80.45578 | 36921 ft | 460 kts | 159° |
| 2026-05-07 14:47 | -0.64162 | -80.43296 | 36925 ft | 460 kts | 159° |
| 2026-05-07 14:47 | -0.70144 | -80.41017 | 36929 ft | 460 kts | 159° |
| 2026-05-07 14:48 | -0.76135 | -80.38735 | 36940 ft | 460 kts | 159° |
| 2026-05-07 14:48 | -0.82111 | -80.36459 | 36935 ft | 460 kts | 159° |
| 2026-05-07 14:49 | -0.88090 | -80.34182 | 36937 ft | 459 kts | 159° |
| 2026-05-07 14:49 | -0.94056 | -80.31909 | 36936 ft | 459 kts | 159° |
| 2026-05-07 14:50 | -1.00020 | -80.29637 | 36936 ft | 459 kts | 159° |
| 2026-05-07 14:50 | -1.05988 | -80.27363 | 36938 ft | 459 kts | 159° |
| 2026-05-07 14:51 | -1.11913 | -80.25106 | 36930 ft | 458 kts | 159° |
| 2026-05-07 14:51 | -1.17878 | -80.22833 | 36927 ft | 458 kts | 159° |
| 2026-05-07 14:52 | -1.23836 | -80.20563 | 36931 ft | 458 kts | 159° |
| 2026-05-07 14:52 | -1.29808 | -80.18288 | 36927 ft | 459 kts | 159° |
| 2026-05-07 14:53 | -1.35771 | -80.16015 | 36929 ft | 459 kts | 159° |
| 2026-05-07 14:53 | -1.41755 | -80.13734 | 36921 ft | 460 kts | 159° |
| 2026-05-07 14:54 | -1.47730 | -80.11457 | 36924 ft | 460 kts | 159° |
| 2026-05-07 14:54 | -1.53728 | -80.09173 | 36921 ft | 461 kts | 160° |
| 2026-05-07 14:55 | -1.59699 | -80.06904 | 36922 ft | 461 kts | 160° |
| 2026-05-07 14:55 | -1.65735 | -80.04609 | 36920 ft | 462 kts | 160° |
| 2026-05-07 14:56 | -1.71710 | -80.02336 | 36914 ft | 462 kts | 160° |
| 2026-05-07 14:56 | -1.77759 | -80.00035 | 36918 ft | 463 kts | 160° |
| 2026-05-07 14:57 | -1.83746 | -79.97758 | 36916 ft | 463 kts | 160° |
| 2026-05-07 14:57 | -1.89768 | -79.95467 | 36922 ft | 464 kts | 160° |
| 2026-05-07 14:58 | -1.95799 | -79.93172 | 36916 ft | 464 kts | 160° |
| 2026-05-07 14:58 | -2.01840 | -79.90872 | 36929 ft | 464 kts | 160° |
| 2026-05-07 14:59 | -2.07880 | -79.88573 | 36930 ft | 464 kts | 160° |
| 2026-05-07 14:59 | -2.13981 | -79.86492 | 36928 ft | 463 kts | 169° |
| 2026-05-07 15:00 | -2.20344 | -79.85613 | 36926 ft | 461 kts | 174° |
| 2026-05-07 15:00 | -2.26720 | -79.84877 | 36932 ft | 461 kts | 174° |
| 2026-05-07 15:01 | -2.33085 | -79.84098 | 36923 ft | 461 kts | 174° |
| 2026-05-07 15:01 | -2.39442 | -79.83287 | 36925 ft | 461 kts | 174° |
| 2026-05-07 15:02 | -2.45807 | -79.82467 | 36931 ft | 461 kts | 174° |
| 2026-05-07 15:02 | -2.52170 | -79.81649 | 36939 ft | 461 kts | 174° |
| 2026-05-07 15:03 | -2.58574 | -79.80826 | 36952 ft | 461 kts | 174° |
| 2026-05-07 15:03 | -2.64931 | -79.80010 | 36968 ft | 461 kts | 174° |
| 2026-05-07 15:04 | -2.71301 | -79.79192 | 36969 ft | 461 kts | 174° |
| 2026-05-07 15:04 | -2.77664 | -79.78375 | 36982 ft | 461 kts | 174° |
| 2026-05-07 15:05 | -2.84035 | -79.77558 | 37001 ft | 461 kts | 175° |
| 2026-05-07 15:05 | -2.90402 | -79.76745 | 37008 ft | 461 kts | 175° |
| 2026-05-07 15:06 | -2.96767 | -79.75932 | 37007 ft | 461 kts | 175° |
| 2026-05-07 15:06 | -3.03139 | -79.75117 | 37028 ft | 461 kts | 175° |
| 2026-05-07 15:07 | -3.09514 | -79.74302 | 37028 ft | 462 kts | 175° |
| 2026-05-07 15:07 | -3.15884 | -79.73487 | 37029 ft | 461 kts | 175° |
| 2026-05-07 15:08 | -3.22253 | -79.72672 | 37021 ft | 462 kts | 175° |
| 2026-05-07 15:08 | -3.28627 | -79.71856 | 37000 ft | 461 kts | 175° |
| 2026-05-07 15:09 | -3.35000 | -79.71041 | 36997 ft | 461 kts | 175° |
| 2026-05-07 15:09 | -3.41357 | -79.70227 | 36993 ft | 460 kts | 175° |
| 2026-05-07 15:10 | -3.47707 | -79.69414 | 36997 ft | 460 kts | 175° |
| 2026-05-07 15:10 | -3.54094 | -79.68597 | 37022 ft | 459 kts | 175° |
| 2026-05-07 15:11 | -3.60442 | -79.67784 | 37030 ft | 459 kts | 175° |
| 2026-05-07 15:11 | -3.66774 | -79.66973 | 37062 ft | 459 kts | 175° |
| 2026-05-07 15:12 | -3.73110 | -79.66161 | 37051 ft | 459 kts | 175° |
| 2026-05-07 15:12 | -3.79450 | -79.65349 | 37065 ft | 459 kts | 175° |
| 2026-05-07 15:13 | -3.85772 | -79.64539 | 37095 ft | 458 kts | 175° |
| 2026-05-07 15:13 | -3.92095 | -79.63729 | 37109 ft | 458 kts | 175° |
| 2026-05-07 15:14 | -3.98407 | -79.62920 | 37137 ft | 457 kts | 175° |
| 2026-05-07 15:14 | -4.04729 | -79.62110 | 37133 ft | 458 kts | 175° |
| 2026-05-07 15:15 | -4.11057 | -79.61299 | 37121 ft | 459 kts | 175° |
| 2026-05-07 15:15 | -4.17395 | -79.60486 | 37098 ft | 459 kts | 175° |
| 2026-05-07 15:16 | -4.23733 | -79.59674 | 37081 ft | 460 kts | 175° |
| 2026-05-07 15:16 | -4.30077 | -79.58860 | 37072 ft | 459 kts | 175° |
| 2026-05-07 15:17 | -4.36413 | -79.58047 | 37080 ft | 459 kts | 175° |
| 2026-05-07 15:17 | -4.42758 | -79.57232 | 37090 ft | 459 kts | 175° |
| 2026-05-07 15:18 | -4.48031 | -79.56556 | 37099 ft | 460 kts | 175° |
| 2026-05-07 15:18 | -4.55415 | -79.55618 | 37101 ft | 460 kts | 175° |
| 2026-05-07 15:19 | -4.61762 | -79.54827 | 37115 ft | 459 kts | 176° |
| 2026-05-07 15:19 | -4.68099 | -79.54039 | 37125 ft | 459 kts | 176° |
| 2026-05-07 15:20 | -4.74438 | -79.53248 | 37129 ft | 459 kts | 176° |
| 2026-05-07 15:20 | -4.79708 | -79.52589 | 37140 ft | 459 kts | 176° |
| 2026-05-07 15:21 | -4.86135 | -79.51786 | 37150 ft | 459 kts | 176° |
| 2026-05-07 15:21 | -4.92466 | -79.50994 | 37160 ft | 458 kts | 176° |
| 2026-05-07 15:22 | -4.98802 | -79.50201 | 37160 ft | 459 kts | 176° |
| 2026-05-07 15:22 | -5.05145 | -79.49408 | 37151 ft | 459 kts | 176° |
| 2026-05-07 15:23 | -5.11486 | -79.48615 | 37144 ft | 459 kts | 176° |
| 2026-05-07 15:23 | -5.17822 | -79.47821 | 37141 ft | 458 kts | 176° |
| 2026-05-07 15:24 | -5.24157 | -79.47029 | 37146 ft | 457 kts | 176° |
| 2026-05-07 15:24 | -5.30474 | -79.46238 | 37134 ft | 457 kts | 176° |
| 2026-05-07 15:25 | -5.36785 | -79.45447 | 37116 ft | 457 kts | 176° |
| 2026-05-07 15:25 | -5.43091 | -79.44658 | 37119 ft | 457 kts | 176° |
| 2026-05-07 15:26 | -5.49404 | -79.43867 | 37112 ft | 457 kts | 176° |
| 2026-05-07 15:26 | -5.55676 | -79.43081 | 37105 ft | 457 kts | 176° |
| 2026-05-07 15:27 | -5.61981 | -79.42290 | 37118 ft | 456 kts | 176° |
| 2026-05-07 15:27 | -5.68284 | -79.41501 | 37113 ft | 457 kts | 176° |
| 2026-05-07 15:28 | -5.74600 | -79.40709 | 37103 ft | 457 kts | 176° |
| 2026-05-07 15:28 | -5.80920 | -79.39916 | 37097 ft | 458 kts | 176° |
| 2026-05-07 15:29 | -5.87248 | -79.39123 | 37099 ft | 459 kts | 176° |
| 2026-05-07 15:29 | -5.93599 | -79.38324 | 37099 ft | 461 kts | 176° |
| 2026-05-07 15:30 | -5.99969 | -79.37525 | 37098 ft | 461 kts | 176° |
| 2026-05-07 15:30 | -6.06288 | -79.36733 | 37101 ft | 461 kts | 176° |
| 2026-05-07 15:31 | -6.12646 | -79.35934 | 37091 ft | 460 kts | 176° |
| 2026-05-07 15:31 | -6.19000 | -79.35136 | 37094 ft | 460 kts | 176° |
| 2026-05-07 15:32 | -6.25340 | -79.34340 | 37114 ft | 458 kts | 176° |
| 2026-05-07 15:32 | -6.31674 | -79.33544 | 37090 ft | 458 kts | 176° |
| 2026-05-07 15:33 | -6.37994 | -79.32749 | 37099 ft | 458 kts | 176° |
| 2026-05-07 15:33 | -6.44330 | -79.31953 | 37107 ft | 459 kts | 176° |
| 2026-05-07 15:34 | -6.50665 | -79.31157 | 37080 ft | 458 kts | 176° |
| 2026-05-07 15:34 | -6.56991 | -79.30361 | 37092 ft | 458 kts | 176° |
| 2026-05-07 15:35 | -6.63333 | -79.29563 | 37091 ft | 459 kts | 176° |
| 2026-05-07 15:35 | -6.69677 | -79.28765 | 37087 ft | 459 kts | 176° |
| 2026-05-07 15:36 | -6.76016 | -79.27967 | 37089 ft | 459 kts | 176° |
| 2026-05-07 15:36 | -6.82358 | -79.27168 | 37095 ft | 459 kts | 176° |
| 2026-05-07 15:37 | -6.88702 | -79.26369 | 37082 ft | 460 kts | 177° |
| 2026-05-07 15:37 | -6.95059 | -79.25569 | 37083 ft | 460 kts | 177° |
| 2026-05-07 15:38 | -7.01372 | -79.24773 | 37083 ft | 460 kts | 177° |
| 2026-05-07 15:38 | -7.07732 | -79.23972 | 37078 ft | 461 kts | 177° |
| 2026-05-07 15:39 | -7.14103 | -79.23168 | 37077 ft | 461 kts | 177° |
| 2026-05-07 15:39 | -7.20462 | -79.22366 | 37071 ft | 461 kts | 177° |
| 2026-05-07 15:40 | -7.26832 | -79.21563 | 37056 ft | 461 kts | 177° |
| 2026-05-07 15:40 | -7.33193 | -79.20760 | 37043 ft | 461 kts | 177° |
| 2026-05-07 15:41 | -7.39551 | -79.19958 | 37044 ft | 460 kts | 177° |
| 2026-05-07 15:41 | -7.45908 | -79.19155 | 37034 ft | 460 kts | 177° |
| 2026-05-07 15:42 | -7.52262 | -79.18352 | 37021 ft | 460 kts | 177° |
| 2026-05-07 15:42 | -7.58595 | -79.17551 | 37041 ft | 458 kts | 177° |
| 2026-05-07 15:43 | -7.64928 | -79.16751 | 37020 ft | 458 kts | 177° |
| 2026-05-07 15:43 | -7.71401 | -79.15935 | 36995 ft | 459 kts | 177° |
| 2026-05-07 15:44 | -7.77736 | -79.15133 | 36999 ft | 458 kts | 177° |
| 2026-05-07 15:44 | -7.84065 | -79.14332 | 36995 ft | 458 kts | 177° |
| 2026-05-07 15:45 | -7.90400 | -79.13530 | 36999 ft | 459 kts | 177° |
| 2026-05-07 15:45 | -7.96698 | -79.12733 | 36997 ft | 459 kts | 177° |
| 2026-05-07 15:46 | -8.06249 | -79.11494 | 36995 ft | 462 kts | 173° |
| 2026-05-07 15:47 | -8.12373 | -79.09383 | 36991 ft | 472 kts | 156° |
| 2026-05-07 15:47 | -8.18104 | -79.06181 | 36986 ft | 473 kts | 154° |
| 2026-05-07 15:48 | -8.23833 | -79.02903 | 36991 ft | 473 kts | 155° |
| 2026-05-07 15:48 | -8.29589 | -78.99662 | 36995 ft | 473 kts | 155° |
| 2026-05-07 15:49 | -8.35358 | -78.96451 | 36998 ft | 473 kts | 155° |
| 2026-05-07 15:49 | -8.41130 | -78.93247 | 37002 ft | 474 kts | 155° |
| 2026-05-07 15:50 | -8.46902 | -78.90041 | 37001 ft | 474 kts | 155° |
| 2026-05-07 15:50 | -8.52683 | -78.86826 | 36996 ft | 474 kts | 155° |
| 2026-05-07 15:51 | -8.58464 | -78.83609 | 37002 ft | 474 kts | 155° |
| 2026-05-07 15:51 | -8.64244 | -78.80392 | 37004 ft | 474 kts | 155° |
| 2026-05-07 15:52 | -8.69056 | -78.77713 | 37005 ft | 475 kts | 155° |
| 2026-05-07 15:52 | -8.74839 | -78.74492 | 37006 ft | 475 kts | 155° |
| 2026-05-07 15:53 | -8.81602 | -78.70724 | 37000 ft | 475 kts | 155° |
| 2026-05-07 15:53 | -8.86410 | -78.68044 | 37008 ft | 475 kts | 155° |
| 2026-05-07 15:54 | -8.92237 | -78.64795 | 37017 ft | 475 kts | 155° |
| 2026-05-07 15:54 | -8.98031 | -78.61563 | 37019 ft | 475 kts | 155° |
| 2026-05-07 15:55 | -9.03816 | -78.58335 | 37020 ft | 475 kts | 155° |
| 2026-05-07 15:55 | -9.09612 | -78.55099 | 37023 ft | 475 kts | 155° |
| 2026-05-07 15:56 | -9.15368 | -78.51898 | 37024 ft | 475 kts | 156° |
| 2026-05-07 15:56 | -9.21278 | -78.48945 | 37024 ft | 473 kts | 159° |
| 2026-05-07 15:57 | -9.27238 | -78.46115 | 37023 ft | 473 kts | 159° |
| 2026-05-07 15:57 | -9.33192 | -78.43265 | 37037 ft | 473 kts | 159° |
| 2026-05-07 15:58 | -9.39136 | -78.40386 | 37045 ft | 474 kts | 158° |
| 2026-05-07 15:58 | -9.45078 | -78.37494 | 37069 ft | 473 kts | 158° |
| 2026-05-07 15:59 | -9.51013 | -78.34605 | 37088 ft | 473 kts | 158° |
| 2026-05-07 15:59 | -9.56954 | -78.31713 | 37109 ft | 473 kts | 158° |
| 2026-05-07 16:00 | -9.62900 | -78.28818 | 37110 ft | 475 kts | 158° |
| 2026-05-07 16:00 | -9.68853 | -78.25918 | 37117 ft | 475 kts | 158° |
| 2026-05-07 16:01 | -9.74772 | -78.23033 | 37119 ft | 475 kts | 158° |
| 2026-05-07 16:01 | -9.80723 | -78.20133 | 37118 ft | 475 kts | 158° |
| 2026-05-07 16:02 | -9.86694 | -78.17221 | 37120 ft | 474 kts | 158° |
| 2026-05-07 16:02 | -9.92680 | -78.14302 | 36552 ft | 480 kts | 158° |
| 2026-05-07 16:02 | -9.95685 | -78.12835 | 35983 ft | 478 kts | 159° |
| 2026-05-07 16:03 | -9.98688 | -78.11368 | 35343 ft | 479 kts | 158° |
| 2026-05-07 16:03 | -10.01696 | -78.09900 | 34652 ft | 481 kts | 158° |
| 2026-05-07 16:03 | -10.04724 | -78.08421 | 33914 ft | 483 kts | 158° |
| 2026-05-07 16:03 | -10.07717 | -78.06959 | 33322 ft | 481 kts | 158° |
| 2026-05-07 16:04 | -10.10760 | -78.05471 | 32737 ft | 478 kts | 157° |
| 2026-05-07 16:04 | -10.13703 | -78.04032 | 32248 ft | 474 kts | 157° |
| 2026-05-07 16:04 | -10.16665 | -78.02584 | 31724 ft | 471 kts | 157° |
| 2026-05-07 16:04 | -10.19605 | -78.01147 | 31220 ft | 468 kts | 157° |
| 2026-05-07 16:05 | -10.22536 | -77.99714 | 30674 ft | 465 kts | 156° |
| 2026-05-07 16:05 | -10.25440 | -77.98294 | 30184 ft | 462 kts | 156° |
| 2026-05-07 16:05 | -10.28335 | -77.96878 | 29601 ft | 459 kts | 156° |
| 2026-05-07 16:05 | -10.31281 | -77.95436 | 29063 ft | 455 kts | 156° |
| 2026-05-07 16:06 | -10.34115 | -77.94048 | 28538 ft | 450 kts | 156° |
| 2026-05-07 16:06 | -10.36930 | -77.92669 | 28035 ft | 446 kts | 155° |
| 2026-05-07 16:06 | -10.39709 | -77.91308 | 27531 ft | 442 kts | 155° |
| 2026-05-07 16:06 | -10.42463 | -77.89959 | 27055 ft | 438 kts | 155° |
| 2026-05-07 16:07 | -10.45194 | -77.88620 | 26546 ft | 434 kts | 155° |
| 2026-05-07 16:07 | -10.47908 | -77.87291 | 26056 ft | 431 kts | 155° |
| 2026-05-07 16:07 | -10.50597 | -77.85972 | 25549 ft | 428 kts | 154° |
| 2026-05-07 16:07 | -10.53274 | -77.84659 | 25069 ft | 424 kts | 154° |
| 2026-05-07 16:08 | -10.55923 | -77.83361 | 24583 ft | 421 kts | 154° |
| 2026-05-07 16:08 | -10.58547 | -77.82076 | 24080 ft | 418 kts | 153° |
| 2026-05-07 16:08 | -10.61130 | -77.80812 | 23587 ft | 416 kts | 153° |
| 2026-05-07 16:08 | -10.63728 | -77.79542 | 23034 ft | 412 kts | 153° |
| 2026-05-07 16:09 | -10.66297 | -77.78286 | 22545 ft | 407 kts | 153° |
| 2026-05-07 16:09 | -10.68871 | -77.77026 | 22058 ft | 402 kts | 153° |
| 2026-05-07 16:09 | -10.71378 | -77.75799 | 21600 ft | 398 kts | 153° |
| 2026-05-07 16:09 | -10.73859 | -77.74584 | 21144 ft | 393 kts | 153° |
| 2026-05-07 16:10 | -10.76315 | -77.73381 | 20695 ft | 389 kts | 153° |
| 2026-05-07 16:10 | -10.78710 | -77.72207 | 20253 ft | 386 kts | 153° |
| 2026-05-07 16:10 | -10.81116 | -77.71028 | 19814 ft | 382 kts | 153° |
| 2026-05-07 16:10 | -10.83534 | -77.69843 | 19362 ft | 379 kts | 153° |
| 2026-05-07 16:11 | -10.85875 | -77.68696 | 18924 ft | 377 kts | 153° |
| 2026-05-07 16:11 | -10.88233 | -77.67540 | 18479 ft | 375 kts | 153° |
| 2026-05-07 16:11 | -10.90571 | -77.66393 | 17996 ft | 372 kts | 153° |
| 2026-05-07 16:11 | -10.92898 | -77.65252 | 17541 ft | 369 kts | 153° |
| 2026-05-07 16:12 | -10.95201 | -77.64122 | 17105 ft | 366 kts | 153° |
| 2026-05-07 16:12 | -10.97485 | -77.63002 | 16667 ft | 362 kts | 153° |
| 2026-05-07 16:12 | -10.99741 | -77.61894 | 16246 ft | 359 kts | 153° |
| 2026-05-07 16:12 | -11.01988 | -77.60792 | 15834 ft | 356 kts | 153° |